createdAt,value
2018-12-17T00:02:29.896Z,46.27
2018-12-17T00:08:33.257Z,41.73
2018-12-17T00:14:36.578Z,49.53
2018-12-17T00:20:40.052Z,46.27
2018-12-17T00:26:43.401Z,42.13
2018-12-17T00:32:46.759Z,49.67
2018-12-17T00:38:50.107Z,41.37
2018-12-17T00:44:53.512Z,45.17
2018-12-17T00:50:56.875Z,50.87
2018-12-17T00:57:00.256Z,53.43
2018-12-17T01:03:03.700Z,47.60
2018-12-17T01:09:07.043Z,45.93
2018-12-17T01:15:10.374Z,46.40
2018-12-17T01:21:13.740Z,49.47
2018-12-17T01:27:17.066Z,43.10
2018-12-17T01:33:21.019Z,48.30
2018-12-17T01:39:24.469Z,48.10
2018-12-17T01:45:27.797Z,38.57
2018-12-17T01:51:31.119Z,43.50
2018-12-17T01:57:34.455Z,42.97
2018-12-17T02:03:37.802Z,42.03
2018-12-17T02:09:41.141Z,36.60
2018-12-17T02:15:44.479Z,46.43
2018-12-17T02:21:47.814Z,45.93
2018-12-17T02:27:51.166Z,40.00
2018-12-17T02:33:54.498Z,41.20
2018-12-17T02:39:57.844Z,39.93
2018-12-17T02:46:01.196Z,42.03
2018-12-17T02:52:04.532Z,48.90
2018-12-17T02:58:07.859Z,51.93
2018-12-17T03:04:11.194Z,45.60
2018-12-17T03:10:14.534Z,38.20
2018-12-17T03:16:17.857Z,44.27
2018-12-17T03:22:21.271Z,37.37
2018-12-17T03:28:24.614Z,41.60
2018-12-17T03:34:27.939Z,39.47
2018-12-17T03:40:31.270Z,38.00
2018-12-17T03:46:34.613Z,44.50
2018-12-17T03:52:37.946Z,37.77
2018-12-17T03:58:41.291Z,37.97
2018-12-17T04:04:44.799Z,36.97
2018-12-17T04:10:48.221Z,39.73
2018-12-17T04:16:51.559Z,41.63
2018-12-17T04:22:54.877Z,44.40
2018-12-17T04:28:58.206Z,46.07
2018-12-17T04:35:01.535Z,38.93
2018-12-17T04:41:04.945Z,45.80
2018-12-17T04:47:08.269Z,35.53
2018-12-17T04:53:11.599Z,43.70
2018-12-17T04:59:15.022Z,43.43
2018-12-17T05:05:18.706Z,41.00
2018-12-17T05:11:22.025Z,37.83
2018-12-17T05:17:25.356Z,34.13
2018-12-17T05:23:28.675Z,38.83
2018-12-17T05:29:32.121Z,35.80
2018-12-17T05:35:35.463Z,45.00
2018-12-17T05:41:38.799Z,29.37
2018-12-17T05:47:42.139Z,28.97
2018-12-17T05:53:45.472Z,30.60
2018-12-17T05:59:48.878Z,27.03
2018-12-17T06:05:52.229Z,24.33
2018-12-17T06:11:55.869Z,25.20
2018-12-17T06:17:59.214Z,28.53
2018-12-17T06:24:02.633Z,23.80
2018-12-17T06:30:06.212Z,23.33
2018-12-17T06:36:09.563Z,20.53
2018-12-17T06:42:12.896Z,27.73
2018-12-17T06:48:17.296Z,23.23
2018-12-17T06:54:21.892Z,23.70
2018-12-17T07:00:25.247Z,24.20
2018-12-17T07:06:28.616Z,21.53
2018-12-17T07:12:32.039Z,21.80
2018-12-17T07:18:35.389Z,19.60
2018-12-17T07:24:38.721Z,23.77
2018-12-17T07:30:42.061Z,21.10
2018-12-17T07:36:45.409Z,19.00
2018-12-17T07:42:48.772Z,21.67
2018-12-17T07:48:52.122Z,30.43
2018-12-17T07:54:55.473Z,26.20
2018-12-17T08:00:58.841Z,29.30
2018-12-17T08:07:02.183Z,27.93
2018-12-17T08:13:05.899Z,31.83
2018-12-17T08:19:09.262Z,24.53
2018-12-17T08:25:12.588Z,27.97
2018-12-17T08:31:15.932Z,31.87
2018-12-17T08:37:19.362Z,28.30
2018-12-17T08:43:22.692Z,28.13
2018-12-17T08:49:26.024Z,36.50
2018-12-17T08:55:29.342Z,30.03
2018-12-17T09:01:32.794Z,29.23
2018-12-17T09:07:36.138Z,27.97
2018-12-17T09:13:39.604Z,31.47
2018-12-17T09:19:43.009Z,27.47
2018-12-17T09:25:46.350Z,34.47
2018-12-17T09:31:49.711Z,29.07
2018-12-17T09:37:53.047Z,31.20
2018-12-17T09:43:56.383Z,30.50
2018-12-17T09:49:59.705Z,31.67
2018-12-17T09:56:03.031Z,30.20
2018-12-17T10:02:06.363Z,32.03
2018-12-17T10:08:09.696Z,31.23
2018-12-17T10:14:13.013Z,31.93
2018-12-17T10:20:16.343Z,32.27
2018-12-17T10:26:19.773Z,27.67
2018-12-17T10:32:23.129Z,29.20
2018-12-17T10:38:26.466Z,28.07
2018-12-17T10:44:29.805Z,30.03
2018-12-17T10:50:33.135Z,26.67
2018-12-17T10:56:36.477Z,25.43
2018-12-17T11:02:39.818Z,23.57
2018-12-17T11:08:43.163Z,25.13
2018-12-17T11:14:46.501Z,23.70
2018-12-17T11:20:49.962Z,21.43
2018-12-17T11:26:53.301Z,25.30
2018-12-17T11:32:56.629Z,28.00
2018-12-17T11:38:59.973Z,22.63
2018-12-17T11:45:03.394Z,23.10
2018-12-17T11:51:06.718Z,23.43
2018-12-17T11:57:19.643Z,19.70
2018-12-17T12:03:23.267Z,15.03
2018-12-17T12:09:26.591Z,16.70
2018-12-17T12:15:30.003Z,12.27
2018-12-17T12:21:33.415Z,15.60
2018-12-17T12:27:36.746Z,13.33
2018-12-17T12:33:40.159Z,10.73
2018-12-17T12:39:43.500Z,13.80
2018-12-17T12:45:46.924Z,13.93
2018-12-17T12:51:50.872Z,15.03
2018-12-17T12:57:54.191Z,15.80
2018-12-17T13:03:57.519Z,14.43
2018-12-17T13:10:00.852Z,12.97
2018-12-17T13:16:04.206Z,18.10
2018-12-17T13:22:07.552Z,17.67
2018-12-17T13:28:10.884Z,18.07
2018-12-17T13:34:14.225Z,17.00
2018-12-17T13:40:17.572Z,20.33
2018-12-17T13:46:21.002Z,19.33
2018-12-17T13:52:30.010Z,21.10
2018-12-17T13:58:33.338Z,17.03
2018-12-17T14:04:36.695Z,18.60
2018-12-17T14:10:45.465Z,20.33
2018-12-17T14:16:54.349Z,19.20
2018-12-17T14:22:57.691Z,16.50
2018-12-17T14:29:01.034Z,18.03
2018-12-17T14:35:04.821Z,25.93
2018-12-17T14:41:08.195Z,20.57
2018-12-17T14:47:11.543Z,16.23
2018-12-17T14:53:14.907Z,17.00
2018-12-17T14:59:18.276Z,18.50
2018-12-17T15:05:21.605Z,16.73
2018-12-17T15:11:24.949Z,20.77
2018-12-17T15:17:28.274Z,16.93
2018-12-17T15:23:31.650Z,20.30
2018-12-17T15:29:35.017Z,17.67
2018-12-17T15:35:38.467Z,13.20
2018-12-17T15:41:41.796Z,15.63
2018-12-17T15:47:45.242Z,17.87
2018-12-17T15:53:48.809Z,10.33
2018-12-17T15:59:52.176Z,13.20
2018-12-17T16:05:55.496Z,13.07
2018-12-17T16:11:58.822Z,12.43
2018-12-17T16:18:02.212Z,14.17
2018-12-17T16:24:05.623Z,13.13
2018-12-17T16:30:10.125Z,11.87
2018-12-17T16:36:13.489Z,12.33
2018-12-17T16:42:16.833Z,14.50
2018-12-17T16:48:20.184Z,15.60
2018-12-17T16:54:23.548Z,15.10
2018-12-17T17:00:26.875Z,11.90
2018-12-17T17:06:30.211Z,12.00
2018-12-17T17:12:33.626Z,14.00
2018-12-17T17:18:36.982Z,11.10
2018-12-17T17:24:40.355Z,11.90
2018-12-17T17:30:43.688Z,16.47
2018-12-17T17:36:47.021Z,12.60
2018-12-17T17:42:50.378Z,13.97
2018-12-17T17:48:53.727Z,16.30
2018-12-17T17:54:57.047Z,18.33
2018-12-17T18:01:00.453Z,18.90
2018-12-17T18:07:03.790Z,14.90
2018-12-17T18:13:07.146Z,15.40
2018-12-17T18:19:10.483Z,18.03
2018-12-17T18:25:13.840Z,19.87
2018-12-17T18:31:17.198Z,26.97
2018-12-17T18:37:21.199Z,21.70
2018-12-17T18:43:24.569Z,18.40
2018-12-17T18:49:27.908Z,19.13
2018-12-17T18:55:31.260Z,17.80
2018-12-17T19:01:34.600Z,20.53
2018-12-17T19:07:37.941Z,20.57
2018-12-17T19:13:41.271Z,24.03
2018-12-17T19:19:44.618Z,21.47
2018-12-17T19:25:47.985Z,19.83
2018-12-17T19:31:51.903Z,18.90
2018-12-17T19:37:55.309Z,18.50
2018-12-17T19:43:58.644Z,20.50
2018-12-17T19:50:01.981Z,21.60
2018-12-17T19:56:05.424Z,19.20
2018-12-17T20:02:08.797Z,19.00
2018-12-17T20:08:12.136Z,19.50
2018-12-17T20:14:15.469Z,18.87
2018-12-17T20:20:18.808Z,16.07
2018-12-17T20:26:22.143Z,19.90
2018-12-17T20:32:25.618Z,19.77
2018-12-17T20:38:28.949Z,18.63
2018-12-17T20:44:32.290Z,19.57
2018-12-17T20:50:35.630Z,15.57
2018-12-17T20:56:38.972Z,16.00
2018-12-17T21:02:42.316Z,18.63
2018-12-17T21:08:45.665Z,19.13
2018-12-17T21:14:50.947Z,15.37
2018-12-17T21:20:54.276Z,25.77
2018-12-17T21:26:57.626Z,17.37
2018-12-17T21:33:06.601Z,18.87
2018-12-17T21:39:07.101Z,15.97
2018-12-17T21:45:10.443Z,19.10
2018-12-17T21:51:13.805Z,19.03
2018-12-17T21:57:17.147Z,19.47
2018-12-17T22:03:21.092Z,17.73
2018-12-17T22:09:24.408Z,26.70
2018-12-17T22:15:27.763Z,25.47
2018-12-17T22:21:31.114Z,25.17
2018-12-17T22:27:34.445Z,26.43
2018-12-17T22:33:37.775Z,22.90
2018-12-17T22:39:41.126Z,27.87
2018-12-17T22:45:44.672Z,25.60
2018-12-17T22:51:48.017Z,26.40
2018-12-17T22:57:51.377Z,27.03
2018-12-17T23:03:54.698Z,29.13
2018-12-17T23:10:15.998Z,24.10
2018-12-17T23:16:37.258Z,29.90
2018-12-17T23:22:42.670Z,24.10
2018-12-17T23:28:46.976Z,24.37
2018-12-17T23:34:51.167Z,27.60
2018-12-17T23:40:54.505Z,27.30
2018-12-17T23:46:57.936Z,25.30
2018-12-17T23:53:01.276Z,25.13
2018-12-17T23:59:04.680Z,22.37
